Time;durP1;ratioP1;P1;durP2;ratioP2;P2;SDS_P1;SDS_P2;PMS_P1;PMS_P2;Temp;Humidity;BMP_temperature;BMP_pressure;BME280_temperature;BME280_humidity;BME280_pressure;Samples;Min_cycle;Max_cycle;Signal;HPM_P1;HPM_P2
2022/06/04 00:02:22;;;;;;;28.27;25.45;;;19.20;99.90;;;;;;5072359;28;20250;-70
2022/06/04 00:04:49;;;;;;;31.35;28.15;;;19.20;99.90;;;;;;5073691;28;20241;-75
2022/06/04 00:07:15;;;;;;;32.08;28.58;;;19.10;99.90;;;;;;5073846;28;20241;-71
2022/06/04 00:15:29;;;;;;;30.83;27.87;;;19.10;99.90;;;;;;5073654;28;20262;-71
2022/06/04 00:15:33;;;;;;;32.42;29.13;;;19.00;99.90;;;;;;5074308;28;20209;-71
2022/06/04 00:18:00;;;;;;;33.30;29.88;;;19.00;99.90;;;;;;5073612;28;20230;-71
2022/06/04 00:20:27;;;;;;;33.78;30.15;;;18.90;99.90;;;;;;5073404;28;20203;-71
2022/06/04 00:22:59;;;;;;;34.03;30.48;;;18.90;99.90;;;;;;5073531;28;20256;-71
2022/06/04 00:25:26;;;;;;;32.17;28.77;;;18.90;99.90;;;;;;5073676;28;20245;-71
2022/06/04 00:27:57;;;;;;;26.70;24.00;;;19.00;99.90;;;;;;5073421;28;20708;-71
2022/06/04 00:30:24;;;;;;;24.80;22.27;;;19.00;99.90;;;;;;5073714;28;20202;-71
2022/06/04 00:32:51;;;;;;;24.00;21.65;;;19.00;99.90;;;;;;5073240;28;20258;-71
2022/06/04 00:35:19;;;;;;;22.45;20.20;;;18.90;99.90;;;;;;5073530;28;20243;-71
2022/06/04 00:37:46;;;;;;;21.75;19.55;;;18.80;99.90;;;;;;5073294;28;20258;-71
2022/06/04 00:40:20;;;;;;;20.80;18.80;;;18.80;99.90;;;;;;5073595;28;20240;-71
2022/06/04 00:42:47;;;;;;;19.63;17.80;;;18.90;99.90;;;;;;5073257;28;20346;-71
2022/06/04 00:45:51;;;;;;;19.40;17.40;;;18.80;99.90;;;;;;5073275;28;20681;-71
2022/06/04 00:48:20;;;;;;;20.45;18.25;;;18.80;99.90;;;;;;5073112;28;20256;-71
2022/06/04 00:50:47;;;;;;;20.50;18.67;;;18.80;99.90;;;;;;5073472;28;20571;-71
2022/06/04 00:53:14;;;;;;;25.90;23.25;;;18.80;99.90;;;;;;5072979;28;20251;-71
2022/06/04 00:55:47;;;;;;;27.08;24.27;;;18.70;99.90;;;;;;5073282;28;20249;-71
2022/06/04 00:58:32;;;;;;;24.65;22.35;;;18.80;99.90;;;;;;5073233;28;20242;-71
2022/06/04 01:01:10;;;;;;;26.97;24.27;;;18.70;99.90;;;;;;5073181;28;20242;-71
2022/06/04 01:03:50;;;;;;;24.52;22.02;;;18.70;99.90;;;;;;5072960;28;20479;-71
2022/06/04 01:06:36;;;;;;;27.00;24.10;;;18.70;99.90;;;;;;5073221;28;20199;-71
2022/06/04 01:09:27;;;;;;;25.00;22.50;;;18.70;99.90;;;;;;5073501;28;20219;-71
2022/06/04 01:12:11;;;;;;;24.35;21.85;;;18.70;99.90;;;;;;5073087;28;20245;-71
2022/06/04 01:14:55;;;;;;;23.70;21.25;;;18.70;99.90;;;;;;5073621;28;20240;-71
2022/06/04 01:17:32;;;;;;;24.98;22.38;;;18.70;99.90;;;;;;5072835;28;20314;-71
2022/06/04 01:20:14;;;;;;;25.75;23.13;;;18.60;99.90;;;;;;5073155;28;20259;-71
2022/06/04 01:23:10;;;;;;;23.50;21.00;;;18.60;99.90;;;;;;5073124;28;20256;-71
2022/06/04 01:25:53;;;;;;;23.98;21.50;;;18.50;99.90;;;;;;5072952;28;20245;-71
2022/06/04 01:28:23;;;;;;;21.92;19.73;;;18.50;99.90;;;;;;5072851;28;20704;-71
2022/06/04 01:30:52;;;;;;;21.35;19.25;;;18.50;99.90;;;;;;5072976;28;20241;-71
2022/06/04 01:33:22;;;;;;;21.92;19.83;;;18.60;99.90;;;;;;5074436;28;20592;-71
2022/06/04 01:35:55;;;;;;;22.80;20.40;;;18.50;99.90;;;;;;5076753;28;20230;-71
2022/06/04 01:38:31;;;;;;;22.83;20.63;;;18.50;99.90;;;;;;5076479;28;20309;-71
2022/06/04 01:41:03;;;;;;;23.10;20.90;;;18.40;99.90;;;;;;5076401;28;20277;-71
2022/06/04 01:43:36;;;;;;;24.80;22.30;;;18.40;99.90;;;;;;5076286;28;20236;-71
2022/06/04 01:46:07;;;;;;;25.73;23.13;;;18.40;99.90;;;;;;5076322;28;20612;-71
2022/06/04 01:48:38;;;;;;;25.10;22.60;;;18.40;99.90;;;;;;5076435;28;20222;-71
2022/06/04 01:51:06;;;;;;;25.55;22.23;;;18.40;99.90;;;;;;5076440;28;20337;-71
2022/06/04 01:53:36;;;;;;;23.02;20.80;;;18.40;99.90;;;;;;5075991;28;20696;-71
2022/06/04 01:56:07;;;;;;;20.73;18.63;;;18.40;99.90;;;;;;5076377;28;20235;-71
2022/06/04 01:58:38;;;;;;;22.50;20.20;;;18.50;99.90;;;;;;5076238;28;20265;-71
2022/06/04 02:01:08;;;;;;;22.45;20.35;;;18.40;99.90;;;;;;5076140;28;20249;-71
2022/06/04 02:03:42;;;;;;;22.30;20.10;;;18.40;99.90;;;;;;5076059;28;20210;-71
2022/06/04 02:06:12;;;;;;;22.50;20.20;;;18.40;99.90;;;;;;5076113;28;20675;-71
2022/06/04 02:08:43;;;;;;;23.40;21.10;;;18.40;99.90;;;;;;5075820;28;20218;-71
2022/06/04 02:11:14;;;;;;;24.73;22.02;;;18.30;99.90;;;;;;5076132;28;20263;-71
2022/06/04 02:13:43;;;;;;;23.77;21.48;;;18.30;99.90;;;;;;5075905;28;20241;-71
2022/06/04 02:16:15;;;;;;;23.13;20.77;;;18.30;99.90;;;;;;5076112;28;20241;-71
2022/06/04 02:18:42;;;;;;;24.48;21.98;;;18.20;99.90;;;;;;5075770;28;20262;-71
2022/06/04 02:21:09;;;;;;;24.83;22.35;;;18.10;99.90;;;;;;5075932;28;20294;-71
2022/06/04 02:23:37;;;;;;;25.17;22.65;;;18.20;99.90;;;;;;5075691;28;20272;-71
2022/06/04 02:26:04;;;;;;;24.88;22.42;;;18.10;99.90;;;;;;5075830;28;20235;-71
2022/06/04 02:28:31;;;;;;;26.20;23.50;;;18.00;99.90;;;;;;5075536;28;20747;-71
2022/06/04 02:31:07;;;;;;;28.00;25.00;;;17.80;99.90;;;;;;5075640;28;20660;-71
2022/06/04 02:33:44;;;;;;;27.00;24.20;;;17.70;99.90;;;;;;5075330;28;20206;-71
2022/06/04 02:36:17;;;;;;;23.05;20.70;;;17.80;99.90;;;;;;5075880;28;20236;-71
2022/06/04 02:38:50;;;;;;;23.45;21.15;;;17.80;99.90;;;;;;5075317;28;20309;-71
2022/06/04 02:41:21;;;;;;;22.13;19.83;;;17.80;99.90;;;;;;5075559;28;20203;-71
2022/06/04 02:43:53;;;;;;;23.58;21.15;;;17.90;99.90;;;;;;5074428;28;20235;-71
2022/06/04 02:46:27;;;;;;;22.92;20.73;;;17.80;99.90;;;;;;5075060;28;20234;-71
2022/06/04 02:49:00;;;;;;;22.55;20.30;;;17.90;99.90;;;;;;5075388;28;20218;-71
2022/06/04 02:51:30;;;;;;;20.70;18.60;;;17.90;99.90;;;;;;5075447;28;20210;-71
2022/06/04 02:53:58;;;;;;;20.85;18.60;;;18.00;99.90;;;;;;5075239;28;20238;-71
2022/06/04 02:56:31;;;;;;;20.30;18.30;;;18.00;99.90;;;;;;5075427;28;20203;-71
2022/06/04 02:59:03;;;;;;;20.95;18.80;;;18.00;99.90;;;;;;5074755;28;20227;-71
2022/06/04 03:01:36;;;;;;;21.00;18.90;;;18.00;99.90;;;;;;5075188;28;20209;-71
2022/06/04 03:04:05;;;;;;;20.27;18.27;;;18.00;99.90;;;;;;5074640;28;20242;-71
2022/06/04 03:06:33;;;;;;;21.70;19.42;;;18.00;99.90;;;;;;5075005;28;20234;-71
2022/06/04 03:09:01;;;;;;;21.05;18.45;;;18.00;99.90;;;;;;5074816;28;20254;-70
2022/06/04 03:11:28;;;;;;;20.48;18.45;;;18.00;99.90;;;;;;5074851;28;20209;-71
2022/06/04 03:13:54;;;;;;;19.65;17.80;;;18.00;99.90;;;;;;5074727;28;20241;-71
2022/06/04 03:16:22;;;;;;;18.88;17.00;;;18.00;99.90;;;;;;5074820;28;20629;-71
2022/06/04 03:18:50;;;;;;;19.20;17.27;;;18.00;99.90;;;;;;5074434;28;20233;-71
2022/06/04 03:21:18;;;;;;;20.25;18.25;;;17.90;99.90;;;;;;5075076;28;20245;-71
2022/06/04 03:23:45;;;;;;;20.23;18.20;;;17.90;99.90;;;;;;5074377;28;20619;-71
2022/06/04 03:26:12;;;;;;;19.23;17.42;;;17.90;99.90;;;;;;5074577;28;20234;-71
2022/06/04 03:28:39;;;;;;;21.95;19.85;;;17.90;99.90;;;;;;5074479;28;20219;-71
2022/06/04 03:31:05;;;;;;;20.02;18.13;;;17.90;99.90;;;;;;5074642;28;20245;-71
2022/06/04 03:33:32;;;;;;;20.40;18.38;;;17.90;99.90;;;;;;5073999;28;20242;-71
2022/06/04 03:36:00;;;;;;;20.70;18.60;;;17.80;99.90;;;;;;5074329;28;20245;-71
2022/06/04 03:38:27;;;;;;;20.88;18.88;;;17.80;99.90;;;;;;5074423;28;20280;-71
2022/06/04 03:40:54;;;;;;;18.77;16.98;;;17.80;99.90;;;;;;5074142;28;20614;-71
2022/06/04 03:43:21;;;;;;;18.27;16.58;;;17.90;99.90;;;;;;5073992;28;20294;-71
2022/06/04 03:45:48;;;;;;;18.67;16.88;;;17.90;99.90;;;;;;5074154;28;20556;-71
2022/06/04 03:48:15;;;;;;;18.17;16.38;;;17.90;99.90;;;;;;5074219;28;20636;-71
2022/06/04 03:50:42;;;;;;;18.13;16.40;;;18.00;99.90;;;;;;5074198;28;20203;-71
2022/06/04 03:53:10;;;;;;;18.52;16.63;;;18.00;99.90;;;;;;5074042;28;20621;-71
2022/06/04 03:55:37;;;;;;;17.33;15.63;;;17.90;99.90;;;;;;5074270;28;20245;-71
2022/06/04 03:58:04;;;;;;;18.33;16.38;;;17.90;99.90;;;;;;5073843;28;20309;-71
2022/06/04 04:00:33;;;;;;;18.45;16.65;;;17.80;99.90;;;;;;5074140;28;20249;-71
2022/06/04 04:03:02;;;;;;;18.55;16.65;;;17.60;99.90;;;;;;5073992;28;20205;-71
2022/06/04 04:05:35;;;;;;;18.45;16.65;;;17.60;99.90;;;;;;5074088;28;20206;-70
2022/06/04 04:08:05;;;;;;;19.00;17.20;;;17.60;99.90;;;;;;5074245;28;20250;-71
2022/06/04 04:10:34;;;;;;;18.70;16.85;;;17.70;99.90;;;;;;5073944;28;20610;-71
2022/06/04 04:13:01;;;;;;;19.63;17.73;;;17.60;99.90;;;;;;5073604;28;20613;-71
2022/06/04 04:15:29;;;;;;;20.27;18.15;;;17.60;99.90;;;;;;5073745;28;20245;-71
2022/06/04 04:17:56;;;;;;;19.58;17.48;;;17.60;99.90;;;;;;5073622;28;20238;-71
2022/06/04 04:20:25;;;;;;;19.60;17.70;;;17.70;99.90;;;;;;5073715;28;20257;-71
2022/06/04 04:22:53;;;;;;;19.08;17.23;;;17.70;99.90;;;;;;5073457;28;20199;-71
2022/06/04 04:25:23;;;;;;;19.25;17.35;;;17.80;99.90;;;;;;5073609;28;20257;-71
2022/06/04 04:27:52;;;;;;;18.02;16.23;;;17.80;99.90;;;;;;5073713;28;20207;-71
2022/06/04 04:30:20;;;;;;;17.90;16.05;;;17.90;99.90;;;;;;5073302;28;20672;-71
2022/06/04 04:32:48;;;;;;;17.58;15.80;;;18.00;99.90;;;;;;5073466;28;20230;-71
2022/06/04 04:35:17;;;;;;;18.90;17.20;;;18.10;99.90;;;;;;5073381;28;20243;-71
2022/06/04 04:37:44;;;;;;;16.92;15.35;;;18.10;99.90;;;;;;5073353;28;20238;-71
2022/06/04 04:40:12;;;;;;;17.50;15.80;;;18.10;99.90;;;;;;5073588;28;20256;-71
2022/06/04 04:42:39;;;;;;;18.08;16.17;;;18.20;99.90;;;;;;5073251;28;20546;-71
2022/06/04 04:45:08;;;;;;;20.02;18.13;;;18.20;99.90;;;;;;5073557;28;20230;-71
2022/06/04 04:47:35;;;;;;;18.88;17.08;;;18.00;99.90;;;;;;5073484;28;20245;-71
2022/06/04 04:50:03;;;;;;;19.50;17.50;;;18.00;99.90;;;;;;5073430;28;20623;-71
2022/06/04 04:52:30;;;;;;;17.92;16.23;;;18.10;99.90;;;;;;5073125;28;20633;-72
2022/06/04 04:54:57;;;;;;;20.40;18.40;;;18.20;99.90;;;;;;5073459;28;20238;-71
2022/06/04 04:57:24;;;;;;;21.08;18.98;;;18.20;99.90;;;;;;5073277;28;20238;-71
2022/06/04 04:59:50;;;;;;;21.58;19.38;;;18.20;99.90;;;;;;5073262;28;20262;-71
2022/06/04 05:02:19;;;;;;;20.85;18.45;;;18.20;99.90;;;;;;5073175;28;20626;-71
2022/06/04 05:04:46;;;;;;;19.00;17.15;;;18.20;99.90;;;;;;5073352;28;20230;-71
2022/06/04 05:07:12;;;;;;;19.00;17.17;;;18.40;99.90;;;;;;5073340;28;20242;-71
2022/06/04 05:09:40;;;;;;;17.73;16.02;;;18.60;99.90;;;;;;5076962;28;20307;-71
2022/06/04 05:12:08;;;;;;;18.63;16.90;;;18.60;99.90;;;;;;5077137;28;20569;-71
2022/06/04 05:14:35;;;;;;;17.83;15.93;;;18.50;99.90;;;;;;5077469;28;20569;-71
2022/06/04 05:17:02;;;;;;;17.42;15.82;;;18.50;99.90;;;;;;5077192;28;20199;-71
2022/06/04 05:19:30;;;;;;;15.70;14.20;;;18.50;99.90;;;;;;5076849;28;20254;-71
2022/06/04 05:21:58;;;;;;;17.75;14.77;;;18.60;99.90;;;;;;5077213;28;20209;-71
2022/06/04 05:24:28;;;;;;;17.40;15.57;;;18.50;99.90;;;;;;5076865;28;20230;-71
2022/06/04 05:26:55;;;;;;;15.38;13.90;;;18.40;99.90;;;;;;5076925;28;20242;-71
2022/06/04 05:29:23;;;;;;;15.07;13.77;;;18.60;99.90;;;;;;5076841;28;20258;-71
2022/06/04 05:31:52;;;;;;;14.70;13.30;;;18.60;99.90;;;;;;5076642;28;20253;-71
2022/06/04 05:34:20;;;;;;;15.52;14.00;;;18.50;99.90;;;;;;5076705;28;20205;-71
2022/06/04 05:36:49;;;;;;;15.77;14.18;;;18.60;99.90;;;;;;5076696;28;20576;-71
2022/06/04 05:39:16;;;;;;;16.20;14.60;;;18.60;99.90;;;;;;5076441;28;20219;-71
2022/06/04 05:41:44;;;;;;;15.02;13.45;;;18.50;99.90;;;;;;5076701;28;20657;-71
2022/06/04 05:44:11;;;;;;;14.82;13.32;;;18.50;99.90;;;;;;5076429;28;20236;-70
2022/06/04 05:46:40;;;;;;;17.25;15.45;;;18.60;99.90;;;;;;5076547;28;20628;-71
2022/06/04 05:49:07;;;;;;;17.38;15.68;;;18.60;99.90;;;;;;5076940;28;20755;-71
2022/06/04 05:51:34;;;;;;;14.93;13.50;;;18.50;99.90;;;;;;5076425;28;20616;-71
2022/06/04 05:54:02;;;;;;;16.67;15.10;;;18.50;99.90;;;;;;5076174;28;20632;-71
2022/06/04 05:56:32;;;;;;;18.00;16.13;;;18.40;99.90;;;;;;5076343;28;20234;-71
2022/06/04 05:59:01;;;;;;;17.25;15.55;;;18.40;99.90;;;;;;5076194;28;20227;-71
2022/06/04 06:01:32;;;;;;;15.73;14.13;;;18.50;99.90;;;;;;5076347;28;20600;-71
2022/06/04 06:04:00;;;;;;;15.93;14.45;;;18.60;99.90;;;;;;5075798;28;20669;-71
2022/06/04 06:06:30;;;;;;;15.68;14.18;;;18.70;99.90;;;;;;5076205;28;20205;-71
2022/06/04 06:08:57;;;;;;;16.08;14.48;;;18.60;99.90;;;;;;5076153;28;20219;-71
2022/06/04 06:11:26;;;;;;;16.08;14.43;;;18.60;99.90;;;;;;5075929;28;20721;-71
2022/06/04 06:13:53;;;;;;;13.77;12.43;;;18.60;99.90;;;;;;5075911;28;20234;-70
2022/06/04 06:16:22;;;;;;;11.02;10.07;;;18.50;99.90;;;;;;5076016;28;20213;-71
2022/06/04 06:18:50;;;;;;;11.60;9.60;;;18.50;99.90;;;;;;5075563;28;20254;-71
2022/06/04 06:21:19;;;;;;;12.07;10.98;;;18.50;99.90;;;;;;5075918;28;20203;-71
2022/06/04 06:23:47;;;;;;;11.68;10.57;;;18.50;99.90;;;;;;5075529;28;20207;-71
2022/06/04 06:26:16;;;;;;;13.52;11.43;;;18.50;99.90;;;;;;5075702;28;20242;-71
2022/06/04 06:28:45;;;;;;;12.95;11.55;;;18.40;99.90;;;;;;5075782;28;20261;-71
2022/06/04 06:31:15;;;;;;;13.48;12.07;;;18.40;99.90;;;;;;5075727;28;20234;-71
2022/06/04 06:33:42;;;;;;;12.32;11.27;;;18.30;99.90;;;;;;5075561;28;20234;-71
2022/06/04 06:36:11;;;;;;;13.80;12.45;;;18.30;99.90;;;;;;5075639;28;20294;-71
2022/06/04 06:38:38;;;;;;;13.57;12.38;;;18.30;99.90;;;;;;5075334;28;20313;-71
2022/06/04 06:41:07;;;;;;;12.52;11.43;;;18.40;99.90;;;;;;5075645;28;20574;-70
2022/06/04 06:43:36;;;;;;;12.52;11.35;;;18.50;99.90;;;;;;5075177;28;20199;-71
2022/06/04 06:46:06;;;;;;;13.57;12.32;;;18.60;99.90;;;;;;5075488;28;20199;-71
2022/06/04 06:48:34;;;;;;;13.30;12.10;;;18.60;99.90;;;;;;5075204;28;20709;-71
2022/06/04 06:51:06;;;;;;;12.88;11.68;;;18.70;99.90;;;;;;5075668;28;20532;-71
2022/06/04 06:53:33;;;;;;;13.20;12.00;;;18.80;99.90;;;;;;5074852;28;20242;-71
2022/06/04 06:56:08;;;;;;;15.85;14.38;;;18.90;99.90;;;;;;5075331;28;20226;-71
2022/06/04 06:58:35;;;;;;;15.30;13.75;;;18.80;99.90;;;;;;5075202;28;20284;-71
2022/06/04 07:01:03;;;;;;;18.67;16.77;;;18.70;99.90;;;;;;5075207;28;20620;-71
2022/06/04 07:03:30;;;;;;;21.08;18.80;;;18.60;99.90;;;;;;5075007;28;20211;-71
2022/06/04 07:05:57;;;;;;;21.17;18.88;;;18.60;99.90;;;;;;5075104;28;20294;-71
2022/06/04 07:08:25;;;;;;;27.48;18.33;;;18.60;99.90;;;;;;5074967;28;20313;-71
2022/06/04 07:10:52;;;;;;;21.10;18.88;;;18.60;99.90;;;;;;5074971;28;20194;-71
2022/06/04 07:13:19;;;;;;;19.08;17.27;;;18.60;99.90;;;;;;5074745;28;20241;-71
2022/06/04 07:15:46;;;;;;;18.20;16.50;;;18.70;99.90;;;;;;5074693;28;20245;-71
2022/06/04 07:18:15;;;;;;;18.65;16.88;;;18.70;99.90;;;;;;5074686;28;20664;-71
2022/06/04 07:20:43;;;;;;;18.67;16.80;;;18.80;99.90;;;;;;5074803;28;20263;-71
2022/06/04 07:23:11;;;;;;;17.77;16.07;;;18.90;99.90;;;;;;5074540;28;20449;-71
2022/06/04 07:25:40;;;;;;;18.50;16.60;;;19.10;99.90;;;;;;5074600;28;20851;-71
2022/06/04 07:28:07;;;;;;;15.90;14.40;;;19.30;99.90;;;;;;5074504;28;20473;-72
2022/06/04 07:30:34;;;;;;;16.67;15.07;;;19.50;99.90;;;;;;5073734;28;20959;-71
2022/06/04 07:33:01;;;;;;;15.80;14.30;;;19.50;99.90;;;;;;5074197;28;20486;-71
2022/06/04 07:35:29;;;;;;;15.97;14.27;;;19.70;99.90;;;;;;5074471;28;20473;-72
2022/06/04 07:37:56;;;;;;;18.00;16.10;;;19.70;99.90;;;;;;5074194;28;20479;-71
2022/06/04 07:40:23;;;;;;;18.80;16.93;;;19.80;99.90;;;;;;5074337;28;20510;-71
2022/06/04 07:42:50;;;;;;;21.07;18.97;;;19.70;99.90;;;;;;5074009;28;20485;-72
2022/06/04 07:45:17;;;;;;;18.20;16.50;;;19.50;99.90;;;;;;5074195;28;20940;-72
2022/06/04 07:47:45;;;;;;;18.87;17.07;;;19.40;99.90;;;;;;5074186;28;20473;-72
2022/06/04 07:50:13;;;;;;;19.50;17.50;;;19.50;99.90;;;;;;5074379;28;20445;-71
2022/06/04 07:52:42;;;;;;;19.77;17.70;;;19.50;99.90;;;;;;5073580;28;20478;-72
2022/06/04 07:55:10;;;;;;;18.43;16.70;;;19.50;99.90;;;;;;5073726;28;20478;-71
2022/06/04 07:57:38;;;;;;;19.33;17.43;;;19.50;99.90;;;;;;5074489;28;20497;-71
2022/06/04 08:00:08;;;;;;;19.20;17.40;;;19.60;99.90;;;;;;5074400;28;20530;-72
2022/06/04 08:02:35;;;;;;;23.40;20.10;;;19.60;99.90;;;;;;5073686;28;20503;-71
2022/06/04 08:05:01;;;;;;;21.60;19.60;;;19.60;99.90;;;;;;5073374;28;20478;-71
2022/06/04 08:07:28;;;;;;;23.33;21.03;;;19.70;99.90;;;;;;5073487;28;20477;-71
2022/06/04 08:09:56;;;;;;;23.40;21.00;;;19.60;99.90;;;;;;5073149;28;20469;-71
2022/06/04 08:12:23;;;;;;;28.37;24.47;;;19.60;99.90;;;;;;5072805;28;21017;-72
2022/06/04 08:14:50;;;;;;;28.10;25.50;;;19.60;99.90;;;;;;5073037;28;20440;-71
2022/06/04 08:17:17;;;;;;;28.03;25.23;;;19.80;99.90;;;;;;5072944;28;20479;-71
2022/06/04 08:19:44;;;;;;;26.63;24.07;;;19.80;99.90;;;;;;5072591;28;20577;-71
2022/06/04 08:22:11;;;;;;;28.10;25.10;;;19.80;99.90;;;;;;5072584;28;20504;-71
2022/06/04 08:24:38;;;;;;;26.00;23.40;;;19.80;99.90;;;;;;5072926;28;20478;-73
2022/06/04 08:27:07;;;;;;;25.80;23.20;;;20.10;99.90;;;;;;5063190;28;21029;-72
2022/06/04 08:29:37;;;;;;;24.73;22.43;;;20.30;99.90;;;;;;5054002;28;20499;-72
2022/06/04 08:32:05;;;;;;;25.00;22.77;;;20.50;99.90;;;;;;5051490;28;20815;-72
2022/06/04 08:34:32;;;;;;;26.70;24.13;;;20.50;99.90;;;;;;5051603;28;20445;-72
2022/06/04 08:37:00;;;;;;;24.90;22.60;;;20.60;99.90;;;;;;5051544;28;20457;-72
2022/06/04 08:39:28;;;;;;;23.87;21.73;;;20.80;99.90;;;;;;5050969;28;20532;-72
2022/06/04 08:42:04;;;;;;;23.10;21.10;;;21.20;99.90;;;;;;5050190;28;20470;-71
2022/06/04 08:44:37;;;;;;;21.33;19.43;;;21.60;99.90;;;;;;5051604;28;20812;-72
2022/06/04 08:47:14;;;;;;;23.03;20.77;;;21.60;99.90;;;;;;5051360;28;20450;-73
2022/06/04 08:49:46;;;;;;;21.73;19.80;;;21.60;99.90;;;;;;5051013;28;20462;-72
2022/06/04 08:52:15;;;;;;;22.93;20.73;;;21.40;99.90;;;;;;5051377;28;20450;-71
2022/06/04 08:57:46;;;;;;;19.83;18.10;;;21.90;99.90;;;;;;5052097;28;20547;-71
2022/06/04 09:00:21;;;;;;;19.80;18.10;;;22.50;99.90;;;;;;5052325;28;20480;-72
2022/06/04 09:03:05;;;;;;;18.57;16.97;;;23.40;99.90;;;;;;5052209;28;20845;-72
2022/06/04 09:05:58;;;;;;;18.93;17.27;;;24.20;99.90;;;;;;5052303;28;20484;-72
2022/06/04 09:08:37;;;;;;;17.33;15.93;;;24.30;99.90;;;;;;5052080;28;20867;-72
2022/06/04 09:11:11;;;;;;;17.37;15.97;;;24.60;99.90;;;;;;5051997;28;20468;-72
2022/06/04 09:13:45;;;;;;;17.60;16.10;;;24.70;99.90;;;;;;5051944;28;20860;-72
2022/06/04 09:16:23;;;;;;;19.80;18.10;;;24.20;99.90;;;;;;5052220;28;20447;-72
2022/06/04 09:18:57;;;;;;;18.47;16.87;;;24.00;99.90;;;;;;5051724;28;20466;-72
2022/06/04 09:21:31;;;;;;;17.80;16.40;;;24.70;99.90;;;;;;5051959;28;20537;-71
2022/06/04 09:23:58;;;;;;;18.50;17.00;;;25.90;99.90;;;;;;5051647;28;20500;-71
2022/06/04 09:26:32;;;;;;;18.60;17.10;;;25.90;99.90;;;;;;5051677;28;20478;-71
2022/06/04 09:29:10;;;;;;;17.30;15.70;;;26.10;99.90;;;;;;5051894;28;20857;-71
2022/06/04 09:31:44;;;;;;;16.00;14.73;;;27.00;99.90;;;;;;5051907;28;20811;-71
2022/06/04 09:34:16;;;;;;;15.50;14.20;;;27.80;99.90;;;;;;5051629;28;20935;-71
2022/06/04 09:36:45;;;;;;;16.00;14.80;;;29.00;99.90;;;;;;5051795;28;20525;-71
2022/06/04 09:39:22;;;;;;;15.97;14.60;;;30.20;99.50;;;;;;5051709;28;20509;-70
2022/06/04 09:41:54;;;;;;;15.53;14.40;;;30.00;97.20;;;;;;5051746;28;20474;-68
2022/06/04 09:44:21;;;;;;;16.50;15.10;;;28.80;99.00;;;;;;5051527;28;20474;-69
2022/06/04 09:46:53;;;;;;;16.40;15.00;;;27.30;99.90;;;;;;5051658;28;20442;-69
2022/06/04 09:49:39;;;;;;;16.83;15.53;;;26.00;99.90;;;;;;5051503;28;20493;-69
2022/06/04 09:52:21;;;;;;;17.60;15.97;;;25.00;99.90;;;;;;5051340;28;20504;-69
2022/06/04 09:54:54;;;;;;;17.93;16.43;;;24.30;99.90;;;;;;5053597;28;20460;-69
2022/06/04 09:57:28;;;;;;;20.40;18.57;;;23.60;99.90;;;;;;5054816;28;20454;-69
2022/06/04 09:59:57;;;;;;;20.60;18.67;;;23.20;99.90;;;;;;5054634;28;20920;-69
2022/06/04 10:02:25;;;;;;;19.00;17.40;;;22.80;99.90;;;;;;5054637;28;20477;-69
2022/06/04 10:05:02;;;;;;;19.60;17.93;;;22.80;99.90;;;;;;5054830;28;20484;-69
2022/06/04 10:07:33;;;;;;;20.90;19.10;;;23.20;99.90;;;;;;5054665;28;20493;-69
2022/06/04 10:10:09;;;;;;;20.90;19.00;;;22.90;99.90;;;;;;5054290;28;21156;-69
2022/06/04 10:15:31;;;;;;;20.20;18.30;;;22.70;99.90;;;;;;5054575;28;20440;-69
2022/06/04 10:18:05;;;;;;;20.63;18.77;;;22.50;99.90;;;;;;5054493;28;20449;-69
2022/06/04 10:20:31;;;;;;;22.00;20.03;;;22.30;99.90;;;;;;5054108;28;20494;-68
2022/06/04 10:22:58;;;;;;;21.73;19.63;;;21.80;99.90;;;;;;5054491;28;20441;-70
2022/06/04 10:25:34;;;;;;;21.50;19.80;;;21.80;99.90;;;;;;5054643;28;20535;-70
2022/06/04 10:28:15;;;;;;;23.00;21.10;;;21.80;99.90;;;;;;5054196;28;20552;-70
2022/06/04 10:30:52;;;;;;;22.90;20.80;;;21.70;99.90;;;;;;5054078;28;20478;-69
2022/06/04 10:33:29;;;;;;;20.87;18.97;;;21.50;99.90;;;;;;5054331;28;20459;-70
2022/06/04 10:36:08;;;;;;;17.90;16.30;;;21.40;99.90;;;;;;5054291;28;20451;-70
2022/06/04 10:38:47;;;;;;;17.23;15.73;;;21.50;99.90;;;;;;5053981;28;20469;-70
2022/06/04 10:41:21;;;;;;;14.83;13.53;;;21.70;99.90;;;;;;5054025;28;20509;-70
2022/06/04 10:44:32;;;;;;;13.37;12.27;;;21.40;99.90;;;;;;5053945;28;20503;-70
2022/06/04 10:47:08;;;;;;;14.60;13.13;;;21.30;99.90;;;;;;5053900;28;20481;-70
2022/06/04 10:50:17;;;;;;;14.97;13.53;;;21.40;99.90;;;;;;5053718;28;20500;-70
2022/06/04 10:52:46;;;;;;;17.43;15.73;;;21.30;99.90;;;;;;5053518;28;20481;-70
2022/06/04 10:55:22;;;;;;;19.27;17.57;;;21.20;99.90;;;;;;5053901;28;20551;-70
2022/06/04 10:58:08;;;;;;;20.33;18.43;;;21.10;99.90;;;;;;5053525;28;20445;-70
2022/06/04 11:00:42;;;;;;;21.40;19.30;;;21.10;99.90;;;;;;5053824;28;20492;-70
2022/06/04 11:03:18;;;;;;;22.43;20.23;;;21.10;99.90;;;;;;5053240;28;20488;-70
2022/06/04 11:05:51;;;;;;;23.20;20.97;;;21.00;99.90;;;;;;5052727;28;20480;-69
2022/06/04 11:08:24;;;;;;;23.50;21.40;;;21.00;99.90;;;;;;5053442;28;20483;-69
2022/06/04 11:10:54;;;;;;;24.53;22.20;;;20.90;99.90;;;;;;5053421;28;20947;-70
2022/06/04 11:13:27;;;;;;;26.43;23.83;;;21.00;99.90;;;;;;5053757;28;20452;-70
2022/06/04 11:16:00;;;;;;;23.93;21.73;;;20.90;99.90;;;;;;5053685;28;20475;-70
2022/06/04 11:18:34;;;;;;;24.67;22.23;;;20.90;99.90;;;;;;5053286;28;20473;-70
2022/06/04 11:21:09;;;;;;;25.20;22.83;;;20.80;99.90;;;;;;5053563;28;20494;-70
2022/06/04 11:23:41;;;;;;;23.47;21.27;;;20.80;99.90;;;;;;5053210;28;20819;-70
2022/06/04 11:26:17;;;;;;;25.17;22.63;;;20.80;99.90;;;;;;5053374;28;20450;-69
2022/06/04 11:28:45;;;;;;;25.20;22.90;;;20.80;99.90;;;;;;5053242;28;20506;-69
2022/06/04 11:31:28;;;;;;;26.93;24.23;;;20.80;99.90;;;;;;5052917;28;20484;-69
2022/06/04 11:34:12;;;;;;;27.23;24.50;;;20.60;99.90;;;;;;5052871;28;20460;-69
2022/06/04 11:36:52;;;;;;;27.07;24.17;;;20.60;99.90;;;;;;5053200;28;20473;-69
2022/06/04 11:39:41;;;;;;;27.77;25.10;;;20.60;99.90;;;;;;5052731;28;20509;-69
2022/06/04 11:42:14;;;;;;;27.40;24.67;;;20.60;99.90;;;;;;5053353;28;20499;-69
2022/06/04 11:45:11;;;;;;;27.00;24.40;;;20.70;99.90;;;;;;5053020;28;20480;-70
2022/06/04 11:47:52;;;;;;;29.90;26.93;;;20.70;99.90;;;;;;5046303;28;20495;-69
2022/06/04 11:50:28;;;;;;;30.23;27.13;;;20.80;99.90;;;;;;5053084;28;20904;-69
2022/06/04 11:53:03;;;;;;;28.80;26.20;;;20.80;99.90;;;;;;5052795;28;20488;-68
2022/06/04 11:55:38;;;;;;;29.90;26.90;;;20.90;99.90;;;;;;5052668;28;20481;-69
2022/06/04 11:58:19;;;;;;;30.40;27.40;;;21.00;99.90;;;;;;5052484;28;20492;-69
2022/06/04 12:00:47;;;;;;;29.17;26.27;;;21.00;99.90;;;;;;5052556;28;20564;-70
2022/06/04 12:03:22;;;;;;;27.53;24.83;;;21.20;99.90;;;;;;5052707;28;20781;-69
2022/06/04 12:05:57;;;;;;;26.80;24.27;;;21.30;99.90;;;;;;5052884;28;20477;-70
2022/06/04 12:08:31;;;;;;;28.70;25.87;;;21.50;99.90;;;;;;5052439;28;20468;-70
2022/06/04 12:11:08;;;;;;;28.17;25.43;;;21.50;99.90;;;;;;5052608;28;20444;-70
2022/06/04 12:13:44;;;;;;;27.17;24.63;;;21.60;99.90;;;;;;5052223;28;20445;-70
2022/06/04 12:16:15;;;;;;;28.60;25.70;;;21.90;99.90;;;;;;5052118;28;20477;-70
2022/06/04 12:18:51;;;;;;;27.43;25.00;;;21.90;99.90;;;;;;5052322;28;20501;-69
2022/06/04 12:24:33;;;;;;;25.47;23.17;;;22.10;99.90;;;;;;5052226;28;20429;-68
2022/06/04 12:27:17;;;;;;;26.50;23.97;;;22.20;99.90;;;;;;5052297;28;20478;-68
2022/06/04 12:29:47;;;;;;;24.23;22.03;;;22.40;99.90;;;;;;5052081;28;20470;-68
2022/06/04 12:32:29;;;;;;;25.60;23.30;;;22.70;99.90;;;;;;5052185;28;20497;-69
2022/06/04 12:35:23;;;;;;;25.20;23.03;;;22.80;99.90;;;;;;5052266;28;20470;-70
2022/06/04 12:37:54;;;;;;;26.03;23.63;;;23.00;99.90;;;;;;5052116;28;20443;-69
2022/06/04 12:40:36;;;;;;;23.70;21.67;;;23.10;99.90;;;;;;5051878;28;20494;-69
2022/06/04 12:43:30;;;;;;;24.43;22.23;;;23.10;99.90;;;;;;5051750;28;20841;-70
2022/06/04 12:46:09;;;;;;;24.43;22.27;;;23.20;99.90;;;;;;5051875;28;20457;-69
2022/06/04 12:48:50;;;;;;;25.37;23.10;;;23.20;99.90;;;;;;5052182;28;20982;-70
2022/06/04 12:51:26;;;;;;;24.67;22.33;;;23.20;99.90;;;;;;5052313;28;20536;-69
2022/06/04 12:53:56;;;;;;;22.10;20.13;;;23.30;99.90;;;;;;5051875;28;20498;-70
2022/06/04 12:56:29;;;;;;;21.87;19.97;;;23.50;99.90;;;;;;5052009;28;20445;-70
2022/06/04 12:58:59;;;;;;;21.23;19.43;;;23.60;99.90;;;;;;5052136;28;20942;-69
2022/06/04 13:01:37;;;;;;;23.83;21.70;;;23.80;99.90;;;;;;5051926;28;20571;-69
2022/06/04 13:04:19;;;;;;;23.37;21.27;;;23.80;99.90;;;;;;5051992;28;20459;-69